sensor_id;sensor_type;location;lat;lon;timestamp;temperature;humidity
20459;DHT22;10388;52.314;7.938;2023-09-19T00:01:17;15.40;99.90
20459;DHT22;10388;52.314;7.938;2023-09-19T00:03:50;15.40;99.90
20459;DHT22;10388;52.314;7.938;2023-09-19T00:06:20;15.30;99.90
20459;DHT22;10388;52.314;7.938;2023-09-19T00:08:52;15.30;99.90
20459;DHT22;10388;52.314;7.938;2023-09-19T00:11:22;15.30;99.90
20459;DHT22;10388;52.314;7.938;2023-09-19T00:14:18;15.40;99.90
20459;DHT22;10388;52.314;7.938;2023-09-19T00:16:49;15.40;99.90
20459;DHT22;10388;52.314;7.938;2023-09-19T00:19:20;15.40;99.90
20459;DHT22;10388;52.314;7.938;2023-09-19T00:21:56;15.40;99.90
20459;DHT22;10388;52.314;7.938;2023-09-19T00:24:26;15.40;99.90
20459;DHT22;10388;52.314;7.938;2023-09-19T00:26:58;15.50;99.90
20459;DHT22;10388;52.314;7.938;2023-09-19T00:29:29;15.50;99.90
20459;DHT22;10388;52.314;7.938;2023-09-19T00:32:02;15.50;99.90
20459;DHT22;10388;52.314;7.938;2023-09-19T00:34:35;15.50;99.90
20459;DHT22;10388;52.314;7.938;2023-09-19T00:37:06;15.50;99.90
20459;DHT22;10388;52.314;7.938;2023-09-19T00:39:41;15.50;99.90
20459;DHT22;10388;52.314;7.938;2023-09-19T00:42:19;15.50;99.90
20459;DHT22;10388;52.314;7.938;2023-09-19T00:44:51;15.50;99.90
20459;DHT22;10388;52.314;7.938;2023-09-19T00:47:21;15.50;99.90
20459;DHT22;10388;52.314;7.938;2023-09-19T00:49:53;15.50;99.90
20459;DHT22;10388;52.314;7.938;2023-09-19T00:52:24;15.50;99.90
20459;DHT22;10388;52.314;7.938;2023-09-19T00:54:55;15.40;99.90
20459;DHT22;10388;52.314;7.938;2023-09-19T00:57:26;15.50;99.90
20459;DHT22;10388;52.314;7.938;2023-09-19T00:59:57;15.40;99.90
20459;DHT22;10388;52.314;7.938;2023-09-19T01:02:28;15.40;99.90
20459;DHT22;10388;52.314;7.938;2023-09-19T01:05:03;15.40;99.90
20459;DHT22;10388;52.314;7.938;2023-09-19T01:07:39;15.40;99.90
20459;DHT22;10388;52.314;7.938;2023-09-19T01:10:12;15.40;99.90
20459;DHT22;10388;52.314;7.938;2023-09-19T01:12:46;15.40;99.90
20459;DHT22;10388;52.314;7.938;2023-09-19T01:20:42;15.40;99.90
20459;DHT22;10388;52.314;7.938;2023-09-19T01:23:32;15.40;99.90
20459;DHT22;10388;52.314;7.938;2023-09-19T01:26:29;15.30;99.90
20459;DHT22;10388;52.314;7.938;2023-09-19T01:29:38;15.30;99.90
20459;DHT22;10388;52.314;7.938;2023-09-19T01:32:11;15.20;99.90
20459;DHT22;10388;52.314;7.938;2023-09-19T01:37:22;15.10;99.90
20459;DHT22;10388;52.314;7.938;2023-09-19T01:40:02;15.10;99.90
20459;DHT22;10388;52.314;7.938;2023-09-19T01:45:43;15.10;99.90
20459;DHT22;10388;52.314;7.938;2023-09-19T01:49:03;15.10;99.90
20459;DHT22;10388;52.314;7.938;2023-09-19T01:54:52;15.10;99.90
20459;DHT22;10388;52.314;7.938;2023-09-19T01:57:29;15.10;99.90
20459;DHT22;10388;52.314;7.938;2023-09-19T02:00:06;15.10;99.90
20459;DHT22;10388;52.314;7.938;2023-09-19T02:02:38;15.00;99.90
20459;DHT22;10388;52.314;7.938;2023-09-19T02:05:10;15.00;99.90
20459;DHT22;10388;52.314;7.938;2023-09-19T02:07:41;15.00;99.90
20459;DHT22;10388;52.314;7.938;2023-09-19T02:10:11;15.00;99.90
20459;DHT22;10388;52.314;7.938;2023-09-19T02:12:42;15.00;99.90
20459;DHT22;10388;52.314;7.938;2023-09-19T02:15:13;15.00;99.90
20459;DHT22;10388;52.314;7.938;2023-09-19T02:17:46;15.00;99.90
20459;DHT22;10388;52.314;7.938;2023-09-19T02:20:16;15.00;99.90
20459;DHT22;10388;52.314;7.938;2023-09-19T02:22:47;15.00;99.90
20459;DHT22;10388;52.314;7.938;2023-09-19T02:25:20;15.00;99.90
20459;DHT22;10388;52.314;7.938;2023-09-19T02:27:50;14.90;99.90
20459;DHT22;10388;52.314;7.938;2023-09-19T02:30:21;14.90;99.90
20459;DHT22;10388;52.314;7.938;2023-09-19T02:32:56;14.80;99.90
20459;DHT22;10388;52.314;7.938;2023-09-19T02:35:27;14.90;99.90
20459;DHT22;10388;52.314;7.938;2023-09-19T02:37:58;14.80;99.90
20459;DHT22;10388;52.314;7.938;2023-09-19T02:40:32;14.80;99.90
20459;DHT22;10388;52.314;7.938;2023-09-19T02:43:06;14.80;99.90
20459;DHT22;10388;52.314;7.938;2023-09-19T02:45:38;14.80;99.90
20459;DHT22;10388;52.314;7.938;2023-09-19T02:48:09;14.80;99.90
20459;DHT22;10388;52.314;7.938;2023-09-19T02:50:49;14.80;99.90
20459;DHT22;10388;52.314;7.938;2023-09-19T02:53:19;14.70;99.90
20459;DHT22;10388;52.314;7.938;2023-09-19T02:55:50;14.70;99.90
20459;DHT22;10388;52.314;7.938;2023-09-19T02:58:24;14.70;99.90
20459;DHT22;10388;52.314;7.938;2023-09-19T03:00:55;14.70;99.90
20459;DHT22;10388;52.314;7.938;2023-09-19T03:03:26;14.60;99.90
20459;DHT22;10388;52.314;7.938;2023-09-19T03:06:01;14.60;99.90
20459;DHT22;10388;52.314;7.938;2023-09-19T03:08:36;14.60;99.90
20459;DHT22;10388;52.314;7.938;2023-09-19T03:11:20;14.60;99.90
20459;DHT22;10388;52.314;7.938;2023-09-19T03:13:53;14.50;99.90
20459;DHT22;10388;52.314;7.938;2023-09-19T03:16:24;14.50;99.90
20459;DHT22;10388;52.314;7.938;2023-09-19T03:18:55;14.40;99.90
20459;DHT22;10388;52.314;7.938;2023-09-19T03:21:26;14.40;99.90
20459;DHT22;10388;52.314;7.938;2023-09-19T03:23:56;14.40;99.90
20459;DHT22;10388;52.314;7.938;2023-09-19T03:26:27;14.40;99.90
20459;DHT22;10388;52.314;7.938;2023-09-19T03:28:58;14.30;99.90
20459;DHT22;10388;52.314;7.938;2023-09-19T03:31:28;14.30;99.90
20459;DHT22;10388;52.314;7.938;2023-09-19T03:33:59;14.30;99.90
20459;DHT22;10388;52.314;7.938;2023-09-19T03:36:30;14.30;99.90
20459;DHT22;10388;52.314;7.938;2023-09-19T03:39:01;14.30;99.90
20459;DHT22;10388;52.314;7.938;2023-09-19T03:41:35;14.20;99.90
20459;DHT22;10388;52.314;7.938;2023-09-19T03:44:06;14.20;99.90
20459;DHT22;10388;52.314;7.938;2023-09-19T03:46:37;14.20;99.90
20459;DHT22;10388;52.314;7.938;2023-09-19T03:49:09;14.20;99.90
20459;DHT22;10388;52.314;7.938;2023-09-19T03:51:40;14.20;99.90
20459;DHT22;10388;52.314;7.938;2023-09-19T03:54:11;14.20;99.90
20459;DHT22;10388;52.314;7.938;2023-09-19T03:56:43;14.20;99.90
20459;DHT22;10388;52.314;7.938;2023-09-19T03:59:14;14.20;99.90
20459;DHT22;10388;52.314;7.938;2023-09-19T04:01:44;14.20;99.90
20459;DHT22;10388;52.314;7.938;2023-09-19T04:04:15;14.20;99.90
20459;DHT22;10388;52.314;7.938;2023-09-19T04:06:49;14.20;99.90
20459;DHT22;10388;52.314;7.938;2023-09-19T04:09:19;14.10;99.90
20459;DHT22;10388;52.314;7.938;2023-09-19T04:12:00;14.10;99.90
20459;DHT22;10388;52.314;7.938;2023-09-19T04:14:33;14.10;99.90
20459;DHT22;10388;52.314;7.938;2023-09-19T04:17:04;14.10;99.90
20459;DHT22;10388;52.314;7.938;2023-09-19T04:19:35;14.10;99.90
20459;DHT22;10388;52.314;7.938;2023-09-19T04:22:06;14.10;99.90
20459;DHT22;10388;52.314;7.938;2023-09-19T04:24:38;14.00;99.90
20459;DHT22;10388;52.314;7.938;2023-09-19T04:27:09;14.00;99.90
20459;DHT22;10388;52.314;7.938;2023-09-19T04:29:50;13.90;99.90
20459;DHT22;10388;52.314;7.938;2023-09-19T04:32:29;14.00;99.90
20459;DHT22;10388;52.314;7.938;2023-09-19T04:34:59;14.00;99.90
20459;DHT22;10388;52.314;7.938;2023-09-19T04:37:35;14.00;99.90
20459;DHT22;10388;52.314;7.938;2023-09-19T04:40:10;13.90;99.90
20459;DHT22;10388;52.314;7.938;2023-09-19T04:42:53;13.90;99.90
20459;DHT22;10388;52.314;7.938;2023-09-19T04:45:37;13.90;99.90
20459;DHT22;10388;52.314;7.938;2023-09-19T04:48:10;13.80;99.90
20459;DHT22;10388;52.314;7.938;2023-09-19T04:50:42;13.80;99.90
20459;DHT22;10388;52.314;7.938;2023-09-19T04:53:13;13.80;99.90
20459;DHT22;10388;52.314;7.938;2023-09-19T04:55:53;13.80;99.90
20459;DHT22;10388;52.314;7.938;2023-09-19T04:58:26;13.70;99.90
20459;DHT22;10388;52.314;7.938;2023-09-19T05:01:00;13.70;99.90
20459;DHT22;10388;52.314;7.938;2023-09-19T05:03:43;13.70;99.90
20459;DHT22;10388;52.314;7.938;2023-09-19T05:06:22;13.60;99.90
20459;DHT22;10388;52.314;7.938;2023-09-19T05:08:55;13.60;99.90
20459;DHT22;10388;52.314;7.938;2023-09-19T05:11:37;13.60;99.90
20459;DHT22;10388;52.314;7.938;2023-09-19T05:14:11;13.60;99.90
20459;DHT22;10388;52.314;7.938;2023-09-19T05:16:42;13.50;99.90
20459;DHT22;10388;52.314;7.938;2023-09-19T05:19:15;13.50;99.90
20459;DHT22;10388;52.314;7.938;2023-09-19T05:21:51;13.50;99.90
20459;DHT22;10388;52.314;7.938;2023-09-19T05:24:25;13.40;99.90
20459;DHT22;10388;52.314;7.938;2023-09-19T05:26:56;13.40;99.90
20459;DHT22;10388;52.314;7.938;2023-09-19T05:29:33;13.40;99.90
20459;DHT22;10388;52.314;7.938;2023-09-19T05:32:04;13.40;99.90
20459;DHT22;10388;52.314;7.938;2023-09-19T05:35:02;13.40;99.90
20459;DHT22;10388;52.314;7.938;2023-09-19T05:37:33;13.40;99.90
20459;DHT22;10388;52.314;7.938;2023-09-19T05:40:26;13.40;99.90
20459;DHT22;10388;52.314;7.938;2023-09-19T05:42:57;13.30;99.90
20459;DHT22;10388;52.314;7.938;2023-09-19T05:45:28;13.40;99.90
20459;DHT22;10388;52.314;7.938;2023-09-19T05:48:14;13.30;99.90
20459;DHT22;10388;52.314;7.938;2023-09-19T05:50:51;13.30;99.90
20459;DHT22;10388;52.314;7.938;2023-09-19T05:53:22;13.40;99.90
20459;DHT22;10388;52.314;7.938;2023-09-19T05:55:56;13.30;99.90
20459;DHT22;10388;52.314;7.938;2023-09-19T05:58:50;13.30;99.90
20459;DHT22;10388;52.314;7.938;2023-09-19T06:01:25;13.40;99.90
20459;DHT22;10388;52.314;7.938;2023-09-19T06:03:55;13.30;99.90
20459;DHT22;10388;52.314;7.938;2023-09-19T06:06:26;13.40;99.90
20459;DHT22;10388;52.314;7.938;2023-09-19T06:08:57;13.40;99.90
20459;DHT22;10388;52.314;7.938;2023-09-19T06:11:30;13.40;99.90
20459;DHT22;10388;52.314;7.938;2023-09-19T06:14:04;13.50;99.90
20459;DHT22;10388;52.314;7.938;2023-09-19T06:23:38;13.50;99.90
20459;DHT22;10388;52.314;7.938;2023-09-19T06:26:09;13.50;99.90
20459;DHT22;10388;52.314;7.938;2023-09-19T06:28:40;13.60;99.90
20459;DHT22;10388;52.314;7.938;2023-09-19T06:31:12;13.70;99.90
20459;DHT22;10388;52.314;7.938;2023-09-19T06:33:43;13.80;99.90
20459;DHT22;10388;52.314;7.938;2023-09-19T06:36:13;13.80;99.90
20459;DHT22;10388;52.314;7.938;2023-09-19T06:38:44;13.90;99.90
20459;DHT22;10388;52.314;7.938;2023-09-19T06:41:14;14.00;99.90
20459;DHT22;10388;52.314;7.938;2023-09-19T06:43:47;14.10;99.90
20459;DHT22;10388;52.314;7.938;2023-09-19T06:46:18;14.10;99.90
20459;DHT22;10388;52.314;7.938;2023-09-19T06:48:49;14.10;99.90
20459;DHT22;10388;52.314;7.938;2023-09-19T06:51:20;14.10;99.90
20459;DHT22;10388;52.314;7.938;2023-09-19T06:53:50;14.10;99.90
20459;DHT22;10388;52.314;7.938;2023-09-19T06:56:24;14.10;99.90
20459;DHT22;10388;52.314;7.938;2023-09-19T06:58:56;14.00;99.90
20459;DHT22;10388;52.314;7.938;2023-09-19T07:01:26;14.00;99.90
20459;DHT22;10388;52.314;7.938;2023-09-19T07:03:57;14.00;99.90
20459;DHT22;10388;52.314;7.938;2023-09-19T07:06:28;14.00;99.90
20459;DHT22;10388;52.314;7.938;2023-09-19T07:08:58;14.10;99.90
20459;DHT22;10388;52.314;7.938;2023-09-19T07:11:29;14.10;99.90
20459;DHT22;10388;52.314;7.938;2023-09-19T07:14:01;14.10;99.90
20459;DHT22;10388;52.314;7.938;2023-09-19T07:16:34;14.10;99.90
20459;DHT22;10388;52.314;7.938;2023-09-19T07:19:05;14.20;99.90
20459;DHT22;10388;52.314;7.938;2023-09-19T07:21:35;14.20;99.90
20459;DHT22;10388;52.314;7.938;2023-09-19T07:24:06;14.30;99.90
20459;DHT22;10388;52.314;7.938;2023-09-19T07:26:38;14.30;99.90
20459;DHT22;10388;52.314;7.938;2023-09-19T07:29:13;14.40;99.90
20459;DHT22;10388;52.314;7.938;2023-09-19T07:31:44;14.50;99.90
20459;DHT22;10388;52.314;7.938;2023-09-19T07:34:14;14.70;99.90
20459;DHT22;10388;52.314;7.938;2023-09-19T07:36:45;14.80;99.90
20459;DHT22;10388;52.314;7.938;2023-09-19T07:39:17;14.90;99.90
20459;DHT22;10388;52.314;7.938;2023-09-19T07:41:48;14.90;99.90
20459;DHT22;10388;52.314;7.938;2023-09-19T07:44:20;15.00;99.90
20459;DHT22;10388;52.314;7.938;2023-09-19T07:46:50;15.00;99.90
20459;DHT22;10388;52.314;7.938;2023-09-19T07:49:21;15.20;99.90
20459;DHT22;10388;52.314;7.938;2023-09-19T07:51:52;15.20;99.90
20459;DHT22;10388;52.314;7.938;2023-09-19T07:54:25;15.20;99.90
20459;DHT22;10388;52.314;7.938;2023-09-19T07:56:55;15.30;99.90
20459;DHT22;10388;52.314;7.938;2023-09-19T07:59:26;15.40;99.90
20459;DHT22;10388;52.314;7.938;2023-09-19T08:02:00;15.40;99.90
20459;DHT22;10388;52.314;7.938;2023-09-19T08:04:33;15.40;99.90
20459;DHT22;10388;52.314;7.938;2023-09-19T08:07:04;15.30;99.90
20459;DHT22;10388;52.314;7.938;2023-09-19T08:09:36;15.30;99.90
20459;DHT22;10388;52.314;7.938;2023-09-19T08:12:09;15.30;99.90
20459;DHT22;10388;52.314;7.938;2023-09-19T08:14:40;15.20;99.90
20459;DHT22;10388;52.314;7.938;2023-09-19T08:17:14;15.20;99.90
20459;DHT22;10388;52.314;7.938;2023-09-19T08:19:45;15.30;99.90
20459;DHT22;10388;52.314;7.938;2023-09-19T08:22:16;15.40;99.90
20459;DHT22;10388;52.314;7.938;2023-09-19T08:24:47;15.50;99.90
20459;DHT22;10388;52.314;7.938;2023-09-19T08:27:18;15.50;99.90
20459;DHT22;10388;52.314;7.938;2023-09-19T08:29:49;15.50;99.90
20459;DHT22;10388;52.314;7.938;2023-09-19T08:32:22;15.60;99.90
20459;DHT22;10388;52.314;7.938;2023-09-19T08:34:54;15.60;99.90
20459;DHT22;10388;52.314;7.938;2023-09-19T08:37:25;15.70;99.90
20459;DHT22;10388;52.314;7.938;2023-09-19T08:39:55;15.80;99.90
20459;DHT22;10388;52.314;7.938;2023-09-19T08:42:26;15.80;99.90
20459;DHT22;10388;52.314;7.938;2023-09-19T08:44:58;15.80;99.90
20459;DHT22;10388;52.314;7.938;2023-09-19T08:47:38;15.90;99.90
20459;DHT22;10388;52.314;7.938;2023-09-19T08:50:36;15.90;99.90
20459;DHT22;10388;52.314;7.938;2023-09-19T08:53:10;16.00;99.90
20459;DHT22;10388;52.314;7.938;2023-09-19T08:55:43;16.10;99.90
20459;DHT22;10388;52.314;7.938;2023-09-19T08:58:17;16.10;99.90
20459;DHT22;10388;52.314;7.938;2023-09-19T09:00:51;16.10;99.90
20459;DHT22;10388;52.314;7.938;2023-09-19T09:03:23;16.20;99.90
20459;DHT22;10388;52.314;7.938;2023-09-19T09:05:55;16.30;99.90
20459;DHT22;10388;52.314;7.938;2023-09-19T09:08:27;16.40;99.90
20459;DHT22;10388;52.314;7.938;2023-09-19T09:10:59;16.40;99.90
20459;DHT22;10388;52.314;7.938;2023-09-19T09:13:29;16.40;99.90
20459;DHT22;10388;52.314;7.938;2023-09-19T09:16:01;16.50;99.90
20459;DHT22;10388;52.314;7.938;2023-09-19T09:18:31;16.40;99.90
20459;DHT22;10388;52.314;7.938;2023-09-19T09:21:02;16.50;99.90
20459;DHT22;10388;52.314;7.938;2023-09-19T09:23:34;16.60;99.90
20459;DHT22;10388;52.314;7.938;2023-09-19T09:26:05;16.60;99.90
20459;DHT22;10388;52.314;7.938;2023-09-19T09:28:44;16.50;99.90
20459;DHT22;10388;52.314;7.938;2023-09-19T09:31:25;16.70;99.90
20459;DHT22;10388;52.314;7.938;2023-09-19T09:33:56;16.80;99.90
20459;DHT22;10388;52.314;7.938;2023-09-19T09:36:38;17.00;99.90
20459;DHT22;10388;52.314;7.938;2023-09-19T09:39:11;17.00;99.90
20459;DHT22;10388;52.314;7.938;2023-09-19T09:41:55;17.10;99.90
20459;DHT22;10388;52.314;7.938;2023-09-19T09:44:25;17.10;99.90
20459;DHT22;10388;52.314;7.938;2023-09-19T09:46:57;16.90;99.90
20459;DHT22;10388;52.314;7.938;2023-09-19T09:49:51;17.00;99.90
20459;DHT22;10388;52.314;7.938;2023-09-19T09:52:25;17.10;99.90
20459;DHT22;10388;52.314;7.938;2023-09-19T09:55:00;17.30;99.90
20459;DHT22;10388;52.314;7.938;2023-09-19T09:57:35;17.50;99.90
20459;DHT22;10388;52.314;7.938;2023-09-19T10:00:06;17.50;99.90
20459;DHT22;10388;52.314;7.938;2023-09-19T10:02:43;17.60;99.90
20459;DHT22;10388;52.314;7.938;2023-09-19T10:05:19;17.60;99.90
20459;DHT22;10388;52.314;7.938;2023-09-19T10:08:10;17.50;99.90
20459;DHT22;10388;52.314;7.938;2023-09-19T10:10:43;17.50;99.90
20459;DHT22;10388;52.314;7.938;2023-09-19T10:13:14;17.60;99.90
20459;DHT22;10388;52.314;7.938;2023-09-19T10:15:50;17.50;99.90
20459;DHT22;10388;52.314;7.938;2023-09-19T10:18:25;17.40;99.90
20459;DHT22;10388;52.314;7.938;2023-09-19T10:20:57;17.50;99.90
20459;DHT22;10388;52.314;7.938;2023-09-19T10:23:28;17.60;99.90
20459;DHT22;10388;52.314;7.938;2023-09-19T10:26:05;17.80;99.90
20459;DHT22;10388;52.314;7.938;2023-09-19T10:28:37;17.70;99.90
20459;DHT22;10388;52.314;7.938;2023-09-19T10:31:09;17.80;99.90
20459;DHT22;10388;52.314;7.938;2023-09-19T10:33:41;17.80;99.90
20459;DHT22;10388;52.314;7.938;2023-09-19T10:36:24;17.90;99.90
20459;DHT22;10388;52.314;7.938;2023-09-19T10:39:16;18.10;99.90
20459;DHT22;10388;52.314;7.938;2023-09-19T10:41:53;18.20;99.90
20459;DHT22;10388;52.314;7.938;2023-09-19T10:44:25;18.30;99.90
20459;DHT22;10388;52.314;7.938;2023-09-19T10:46:57;18.40;99.90
20459;DHT22;10388;52.314;7.938;2023-09-19T10:49:27;18.20;99.90
20459;DHT22;10388;52.314;7.938;2023-09-19T10:51:59;18.10;99.90
20459;DHT22;10388;52.314;7.938;2023-09-19T10:54:34;18.10;99.90
20459;DHT22;10388;52.314;7.938;2023-09-19T10:57:08;18.10;99.90
20459;DHT22;10388;52.314;7.938;2023-09-19T11:00:00;18.20;99.90
20459;DHT22;10388;52.314;7.938;2023-09-19T11:02:33;18.30;99.90
20459;DHT22;10388;52.314;7.938;2023-09-19T11:05:13;18.30;99.90
20459;DHT22;10388;52.314;7.938;2023-09-19T11:07:57;18.30;99.90
20459;DHT22;10388;52.314;7.938;2023-09-19T11:13:27;18.30;99.90
20459;DHT22;10388;52.314;7.938;2023-09-19T11:27:11;18.30;99.90
20459;DHT22;10388;52.314;7.938;2023-09-19T11:29:45;18.40;99.90
20459;DHT22;10388;52.314;7.938;2023-09-19T11:32:16;18.40;99.90
20459;DHT22;10388;52.314;7.938;2023-09-19T11:34:47;18.30;99.90
20459;DHT22;10388;52.314;7.938;2023-09-19T11:40:07;18.30;99.90
20459;DHT22;10388;52.314;7.938;2023-09-19T11:42:47;18.30;99.90
20459;DHT22;10388;52.314;7.938;2023-09-19T11:48:27;18.50;99.90
20459;DHT22;10388;52.314;7.938;2023-09-19T11:50:58;18.60;99.90
20459;DHT22;10388;52.314;7.938;2023-09-19T11:53:33;18.80;99.90
20459;DHT22;10388;52.314;7.938;2023-09-19T11:56:06;18.90;99.90
20459;DHT22;10388;52.314;7.938;2023-09-19T11:58:41;19.00;99.90
20459;DHT22;10388;52.314;7.938;2023-09-19T12:01:14;19.00;99.90
20459;DHT22;10388;52.314;7.938;2023-09-19T12:03:46;18.90;99.90
20459;DHT22;10388;52.314;7.938;2023-09-19T12:06:21;18.90;99.90
20459;DHT22;10388;52.314;7.938;2023-09-19T12:08:53;19.00;99.90
20459;DHT22;10388;52.314;7.938;2023-09-19T12:11:30;18.90;99.90
20459;DHT22;10388;52.314;7.938;2023-09-19T12:14:03;19.00;99.90
20459;DHT22;10388;52.314;7.938;2023-09-19T12:16:34;19.10;99.90
20459;DHT22;10388;52.314;7.938;2023-09-19T12:19:20;19.20;99.90
20459;DHT22;10388;52.314;7.938;2023-09-19T12:24:29;19.30;99.90
20459;DHT22;10388;52.314;7.938;2023-09-19T12:27:05;19.20;99.90
20459;DHT22;10388;52.314;7.938;2023-09-19T12:29:48;19.10;99.90
20459;DHT22;10388;52.314;7.938;2023-09-19T12:32:36;19.10;99.90
20459;DHT22;10388;52.314;7.938;2023-09-19T12:35:10;19.10;99.90
20459;DHT22;10388;52.314;7.938;2023-09-19T12:37:58;19.00;99.90
20459;DHT22;10388;52.314;7.938;2023-09-19T12:40:29;19.00;99.90
20459;DHT22;10388;52.314;7.938;2023-09-19T12:43:03;19.00;99.90
20459;DHT22;10388;52.314;7.938;2023-09-19T12:45:35;19.30;99.90
20459;DHT22;10388;52.314;7.938;2023-09-19T12:48:26;19.40;99.90
20459;DHT22;10388;52.314;7.938;2023-09-19T12:51:08;19.40;99.90
20459;DHT22;10388;52.314;7.938;2023-09-19T12:53:43;19.30;99.90
20459;DHT22;10388;52.314;7.938;2023-09-19T12:56:16;19.30;99.90
20459;DHT22;10388;52.314;7.938;2023-09-19T12:58:55;19.20;99.90
20459;DHT22;10388;52.314;7.938;2023-09-19T13:01:26;19.10;99.90
20459;DHT22;10388;52.314;7.938;2023-09-19T13:04:19;19.00;99.90
20459;DHT22;10388;52.314;7.938;2023-09-19T13:06:50;19.00;99.90
20459;DHT22;10388;52.314;7.938;2023-09-19T13:09:23;19.00;99.90
20459;DHT22;10388;52.314;7.938;2023-09-19T13:11:58;19.00;99.90
20459;DHT22;10388;52.314;7.938;2023-09-19T13:14:30;19.00;99.90
20459;DHT22;10388;52.314;7.938;2023-09-19T13:17:10;19.10;99.90
20459;DHT22;10388;52.314;7.938;2023-09-19T13:19:51;19.00;99.90
20459;DHT22;10388;52.314;7.938;2023-09-19T13:22:42;19.00;99.90
20459;DHT22;10388;52.314;7.938;2023-09-19T13:25:21;19.00;99.90
20459;DHT22;10388;52.314;7.938;2023-09-19T13:27:55;19.00;99.90
20459;DHT22;10388;52.314;7.938;2023-09-19T13:30:27;19.00;99.90
20459;DHT22;10388;52.314;7.938;2023-09-19T13:33:10;19.00;99.90
20459;DHT22;10388;52.314;7.938;2023-09-19T13:35:41;19.10;99.90
20459;DHT22;10388;52.314;7.938;2023-09-19T13:38:11;19.20;99.90
20459;DHT22;10388;52.314;7.938;2023-09-19T13:40:42;19.20;99.90
20459;DHT22;10388;52.314;7.938;2023-09-19T13:43:13;19.30;99.90
20459;DHT22;10388;52.314;7.938;2023-09-19T13:45:44;19.30;99.90
20459;DHT22;10388;52.314;7.938;2023-09-19T13:48:14;19.20;99.90
20459;DHT22;10388;52.314;7.938;2023-09-19T13:50:45;19.10;99.90
20459;DHT22;10388;52.314;7.938;2023-09-19T13:53:15;19.20;99.90
20459;DHT22;10388;52.314;7.938;2023-09-19T13:55:47;19.30;99.90
20459;DHT22;10388;52.314;7.938;2023-09-19T13:58:18;19.40;99.90
20459;DHT22;10388;52.314;7.938;2023-09-19T14:00:49;19.40;99.90
20459;DHT22;10388;52.314;7.938;2023-09-19T14:03:20;19.30;99.90
20459;DHT22;10388;52.314;7.938;2023-09-19T14:05:51;19.30;99.90
20459;DHT22;10388;52.314;7.938;2023-09-19T14:08:22;19.40;99.90
20459;DHT22;10388;52.314;7.938;2023-09-19T14:10:53;19.60;99.90
20459;DHT22;10388;52.314;7.938;2023-09-19T14:13:24;19.50;99.90
20459;DHT22;10388;52.314;7.938;2023-09-19T14:15:55;19.40;99.90
20459;DHT22;10388;52.314;7.938;2023-09-19T14:18:26;19.40;99.90
20459;DHT22;10388;52.314;7.938;2023-09-19T14:20:57;19.40;99.90
20459;DHT22;10388;52.314;7.938;2023-09-19T14:23:27;19.20;99.90
20459;DHT22;10388;52.314;7.938;2023-09-19T14:26:01;19.00;99.90
20459;DHT22;10388;52.314;7.938;2023-09-19T14:28:32;18.90;99.90
20459;DHT22;10388;52.314;7.938;2023-09-19T14:31:10;18.80;99.90
20459;DHT22;10388;52.314;7.938;2023-09-19T14:33:41;18.80;99.90
20459;DHT22;10388;52.314;7.938;2023-09-19T14:36:12;18.80;99.90
20459;DHT22;10388;52.314;7.938;2023-09-19T14:38:43;18.80;99.90
20459;DHT22;10388;52.314;7.938;2023-09-19T14:41:14;18.80;99.90
20459;DHT22;10388;52.314;7.938;2023-09-19T14:43:45;18.70;99.90
20459;DHT22;10388;52.314;7.938;2023-09-19T14:46:15;18.60;99.90
20459;DHT22;10388;52.314;7.938;2023-09-19T14:48:46;18.60;99.90
20459;DHT22;10388;52.314;7.938;2023-09-19T14:51:19;18.60;99.90
20459;DHT22;10388;52.314;7.938;2023-09-19T14:53:50;18.60;99.90
20459;DHT22;10388;52.314;7.938;2023-09-19T14:56:20;18.60;99.90
20459;DHT22;10388;52.314;7.938;2023-09-19T14:58:54;18.60;99.90
20459;DHT22;10388;52.314;7.938;2023-09-19T15:01:24;18.50;99.90
20459;DHT22;10388;52.314;7.938;2023-09-19T15:03:55;18.60;99.90
20459;DHT22;10388;52.314;7.938;2023-09-19T15:06:25;18.60;99.90
20459;DHT22;10388;52.314;7.938;2023-09-19T15:08:56;18.60;99.90
20459;DHT22;10388;52.314;7.938;2023-09-19T15:11:28;18.50;99.90
20459;DHT22;10388;52.314;7.938;2023-09-19T15:13:58;18.50;99.90
20459;DHT22;10388;52.314;7.938;2023-09-19T15:16:29;18.50;99.90
20459;DHT22;10388;52.314;7.938;2023-09-19T15:19:00;18.50;99.90
20459;DHT22;10388;52.314;7.938;2023-09-19T15:21:31;18.50;99.90
20459;DHT22;10388;52.314;7.938;2023-09-19T15:24:01;18.50;99.90
20459;DHT22;10388;52.314;7.938;2023-09-19T15:26:33;18.50;99.90
20459;DHT22;10388;52.314;7.938;2023-09-19T15:29:03;18.50;99.90
20459;DHT22;10388;52.314;7.938;2023-09-19T15:31:36;18.40;99.90
20459;DHT22;10388;52.314;7.938;2023-09-19T15:34:09;18.40;99.90
20459;DHT22;10388;52.314;7.938;2023-09-19T15:36:44;18.30;99.90
20459;DHT22;10388;52.314;7.938;2023-09-19T15:39:15;18.40;99.90
20459;DHT22;10388;52.314;7.938;2023-09-19T15:41:46;18.40;99.90
20459;DHT22;10388;52.314;7.938;2023-09-19T15:44:19;18.40;99.90
20459;DHT22;10388;52.314;7.938;2023-09-19T15:46:50;18.40;99.90
20459;DHT22;10388;52.314;7.938;2023-09-19T15:49:21;18.40;99.90
20459;DHT22;10388;52.314;7.938;2023-09-19T15:51:53;18.40;99.90
20459;DHT22;10388;52.314;7.938;2023-09-19T15:54:25;18.40;99.90
20459;DHT22;10388;52.314;7.938;2023-09-19T15:56:56;18.40;99.90
20459;DHT22;10388;52.314;7.938;2023-09-19T15:59:27;18.30;99.90
20459;DHT22;10388;52.314;7.938;2023-09-19T16:02:00;18.40;99.90
20459;DHT22;10388;52.314;7.938;2023-09-19T16:04:31;18.30;99.90
20459;DHT22;10388;52.314;7.938;2023-09-19T16:07:01;18.40;99.90
20459;DHT22;10388;52.314;7.938;2023-09-19T16:09:34;18.30;99.90
20459;DHT22;10388;52.314;7.938;2023-09-19T16:12:05;18.30;99.90
20459;DHT22;10388;52.314;7.938;2023-09-19T16:14:36;18.20;99.90
20459;DHT22;10388;52.314;7.938;2023-09-19T16:17:08;18.20;99.90
20459;DHT22;10388;52.314;7.938;2023-09-19T16:19:38;18.20;99.90
20459;DHT22;10388;52.314;7.938;2023-09-19T16:22:10;18.10;99.90
20459;DHT22;10388;52.314;7.938;2023-09-19T16:24:40;18.10;99.90
20459;DHT22;10388;52.314;7.938;2023-09-19T16:27:11;18.10;99.90
20459;DHT22;10388;52.314;7.938;2023-09-19T16:29:41;18.10;99.90
20459;DHT22;10388;52.314;7.938;2023-09-19T16:32:12;18.10;99.90
20459;DHT22;10388;52.314;7.938;2023-09-19T16:34:42;18.10;99.90
20459;DHT22;10388;52.314;7.938;2023-09-19T16:37:13;18.10;99.90
20459;DHT22;10388;52.314;7.938;2023-09-19T16:39:47;18.00;99.90
20459;DHT22;10388;52.314;7.938;2023-09-19T16:42:18;18.00;99.90
20459;DHT22;10388;52.314;7.938;2023-09-19T16:44:48;18.00;99.90
20459;DHT22;10388;52.314;7.938;2023-09-19T16:47:19;18.00;99.90
20459;DHT22;10388;52.314;7.938;2023-09-19T16:49:50;18.00;99.90
20459;DHT22;10388;52.314;7.938;2023-09-19T16:52:20;18.00;99.90
20459;DHT22;10388;52.314;7.938;2023-09-19T16:54:51;17.90;99.90